sensor_id;sensor_type;location;lat;lon;timestamp;P1;durP1;ratioP1;P2;durP2;ratioP2
74753;SDS011;63271;53.340;-6.260;2023-07-02T06:01:26;25.85;;;3.90;;
74753;SDS011;63271;53.340;-6.260;2023-07-02T06:03:51;17.98;;;3.50;;
74753;SDS011;63271;53.340;-6.260;2023-07-02T06:06:16;15.27;;;3.08;;
74753;SDS011;63271;53.340;-6.260;2023-07-02T06:08:42;22.42;;;4.00;;
74753;SDS011;63271;53.340;-6.260;2023-07-02T06:11:09;20.35;;;4.15;;
74753;SDS011;63271;53.340;-6.260;2023-07-02T06:13:34;20.63;;;3.47;;
74753;SDS011;63271;53.340;-6.260;2023-07-02T06:16:01;16.10;;;3.30;;
74753;SDS011;63271;53.340;-6.260;2023-07-02T06:18:27;22.63;;;3.92;;
74753;SDS011;63271;53.340;-6.260;2023-07-02T06:20:55;21.38;;;3.55;;
74753;SDS011;63271;53.340;-6.260;2023-07-02T06:23:22;18.90;;;3.30;;
74753;SDS011;63271;53.340;-6.260;2023-07-02T06:25:50;23.75;;;3.70;;
74753;SDS011;63271;53.340;-6.260;2023-07-02T06:28:18;21.95;;;3.60;;
74753;SDS011;63271;53.340;-6.260;2023-07-02T06:30:50;15.10;;;2.90;;
74753;SDS011;63271;53.340;-6.260;2023-07-02T06:33:18;20.20;;;3.60;;
74753;SDS011;63271;53.340;-6.260;2023-07-02T06:35:46;15.45;;;2.90;;
74753;SDS011;63271;53.340;-6.260;2023-07-02T06:38:11;22.42;;;3.20;;
74753;SDS011;63271;53.340;-6.260;2023-07-02T06:40:37;19.88;;;3.38;;
74753;SDS011;63271;53.340;-6.260;2023-07-02T06:43:07;20.00;;;3.83;;
74753;SDS011;63271;53.340;-6.260;2023-07-02T06:45:35;14.63;;;2.83;;
74753;SDS011;63271;53.340;-6.260;2023-07-02T06:48:05;24.80;;;3.58;;
74753;SDS011;63271;53.340;-6.260;2023-07-02T06:50:32;21.13;;;3.17;;
74753;SDS011;63271;53.340;-6.260;2023-07-02T06:53:00;19.63;;;3.53;;
74753;SDS011;63271;53.340;-6.260;2023-07-02T06:55:35;18.80;;;2.67;;
74753;SDS011;63271;53.340;-6.260;2023-07-02T06:58:06;12.73;;;2.80;;
74753;SDS011;63271;53.340;-6.260;2023-07-02T07:00:35;19.85;;;3.22;;
74753;SDS011;63271;53.340;-6.260;2023-07-02T07:03:01;23.25;;;3.90;;
74753;SDS011;63271;53.340;-6.260;2023-07-02T07:05:30;20.90;;;3.75;;
74753;SDS011;63271;53.340;-6.260;2023-07-02T07:07:59;22.58;;;3.40;;
74753;SDS011;63271;53.340;-6.260;2023-07-02T07:10:27;15.85;;;3.35;;
74753;SDS011;63271;53.340;-6.260;2023-07-02T07:13:02;22.95;;;3.45;;
74753;SDS011;63271;53.340;-6.260;2023-07-02T07:15:32;20.13;;;3.53;;
74753;SDS011;63271;53.340;-6.260;2023-07-02T07:18:01;15.13;;;3.13;;
74753;SDS011;63271;53.340;-6.260;2023-07-02T07:20:26;16.63;;;3.65;;
74753;SDS011;63271;53.340;-6.260;2023-07-02T07:22:57;13.68;;;2.75;;
74753;SDS011;63271;53.340;-6.260;2023-07-02T07:25:25;20.27;;;4.13;;
74753;SDS011;63271;53.340;-6.260;2023-07-02T07:27:53;19.20;;;4.10;;
74753;SDS011;63271;53.340;-6.260;2023-07-02T07:30:19;19.42;;;3.15;;
74753;SDS011;63271;53.340;-6.260;2023-07-02T07:32:53;14.50;;;2.83;;
74753;SDS011;63271;53.340;-6.260;2023-07-02T07:35:19;22.67;;;3.30;;
74753;SDS011;63271;53.340;-6.260;2023-07-02T07:37:48;16.33;;;2.92;;
74753;SDS011;63271;53.340;-6.260;2023-07-02T07:40:16;26.55;;;3.92;;
74753;SDS011;63271;53.340;-6.260;2023-07-02T07:42:42;23.67;;;3.20;;
74753;SDS011;63271;53.340;-6.260;2023-07-02T07:45:10;14.50;;;2.75;;
74753;SDS011;63271;53.340;-6.260;2023-07-02T07:47:36;21.00;;;3.92;;
74753;SDS011;63271;53.340;-6.260;2023-07-02T07:50:04;17.48;;;3.53;;
74753;SDS011;63271;53.340;-6.260;2023-07-02T07:52:35;21.38;;;3.70;;
74753;SDS011;63271;53.340;-6.260;2023-07-02T07:55:02;21.65;;;3.40;;
74753;SDS011;63271;53.340;-6.260;2023-07-02T07:57:27;17.02;;;3.17;;
74753;SDS011;63271;53.340;-6.260;2023-07-02T07:59:53;23.05;;;3.45;;
74753;SDS011;63271;53.340;-6.260;2023-07-02T08:02:18;17.00;;;3.38;;
74753;SDS011;63271;53.340;-6.260;2023-07-02T08:04:48;17.00;;;2.72;;
74753;SDS011;63271;53.340;-6.260;2023-07-02T08:07:16;17.63;;;3.45;;
74753;SDS011;63271;53.340;-6.260;2023-07-02T08:09:41;18.80;;;3.30;;
74753;SDS011;63271;53.340;-6.260;2023-07-02T08:12:09;20.73;;;3.33;;
74753;SDS011;63271;53.340;-6.260;2023-07-02T08:14:35;18.83;;;3.40;;
74753;SDS011;63271;53.340;-6.260;2023-07-02T08:17:03;21.92;;;3.22;;
74753;SDS011;63271;53.340;-6.260;2023-07-02T08:19:31;21.40;;;3.42;;
74753;SDS011;63271;53.340;-6.260;2023-07-02T08:22:01;14.88;;;3.30;;
74753;SDS011;63271;53.340;-6.260;2023-07-02T08:24:29;22.10;;;3.78;;
74753;SDS011;63271;53.340;-6.260;2023-07-02T08:26:56;16.00;;;3.40;;
74753;SDS011;63271;53.340;-6.260;2023-07-02T08:29:21;15.10;;;3.15;;
74753;SDS011;63271;53.340;-6.260;2023-07-02T08:31:51;16.95;;;3.15;;
74753;SDS011;63271;53.340;-6.260;2023-07-02T08:34:19;17.10;;;3.03;;
74753;SDS011;63271;53.340;-6.260;2023-07-02T08:36:47;20.90;;;3.28;;
74753;SDS011;63271;53.340;-6.260;2023-07-02T08:39:15;13.35;;;2.60;;
74753;SDS011;63271;53.340;-6.260;2023-07-02T08:41:44;16.17;;;3.25;;
74753;SDS011;63271;53.340;-6.260;2023-07-02T08:44:13;26.85;;;3.30;;
74753;SDS011;63271;53.340;-6.260;2023-07-02T08:46:42;15.55;;;2.67;;
74753;SDS011;63271;53.340;-6.260;2023-07-02T08:49:11;13.15;;;2.97;;
74753;SDS011;63271;53.340;-6.260;2023-07-02T08:51:37;12.40;;;2.72;;
74753;SDS011;63271;53.340;-6.260;2023-07-02T08:54:03;23.48;;;2.92;;
74753;SDS011;63271;53.340;-6.260;2023-07-02T08:56:29;14.55;;;2.45;;
74753;SDS011;63271;53.340;-6.260;2023-07-02T08:58:55;16.98;;;3.35;;
74753;SDS011;63271;53.340;-6.260;2023-07-02T09:01:22;18.85;;;3.38;;
74753;SDS011;63271;53.340;-6.260;2023-07-02T09:03:48;17.30;;;3.40;;
74753;SDS011;63271;53.340;-6.260;2023-07-02T09:06:16;14.82;;;2.58;;
74753;SDS011;63271;53.340;-6.260;2023-07-02T09:08:42;16.45;;;2.53;;
74753;SDS011;63271;53.340;-6.260;2023-07-02T09:11:13;14.63;;;2.85;;
74753;SDS011;63271;53.340;-6.260;2023-07-02T09:16:25;13.35;;;3.28;;
74753;SDS011;63271;53.340;-6.260;2023-07-02T09:19:03;8.50;;;2.15;;
74753;SDS011;63271;53.340;-6.260;2023-07-02T09:21:46;20.40;;;3.10;;
74753;SDS011;63271;53.340;-6.260;2023-07-02T09:26:58;14.95;;;3.15;;
74753;SDS011;63271;53.340;-6.260;2023-07-02T09:32:03;8.60;;;2.22;;
74753;SDS011;63271;53.340;-6.260;2023-07-02T09:34:35;14.35;;;2.42;;
74753;SDS011;63271;53.340;-6.260;2023-07-02T09:37:05;14.35;;;2.45;;
74753;SDS011;63271;53.340;-6.260;2023-07-02T09:39:34;12.32;;;2.47;;
74753;SDS011;63271;53.340;-6.260;2023-07-02T09:42:04;14.50;;;2.53;;
74753;SDS011;63271;53.340;-6.260;2023-07-02T09:44:35;15.57;;;2.78;;
74753;SDS011;63271;53.340;-6.260;2023-07-02T09:49:34;10.55;;;2.42;;
74753;SDS011;63271;53.340;-6.260;2023-07-02T09:52:01;11.90;;;2.22;;
74753;SDS011;63271;53.340;-6.260;2023-07-02T09:54:28;14.25;;;2.97;;
74753;SDS011;63271;53.340;-6.260;2023-07-02T09:56:55;14.05;;;2.42;;
74753;SDS011;63271;53.340;-6.260;2023-07-02T09:59:21;14.43;;;2.13;;
74753;SDS011;63271;53.340;-6.260;2023-07-02T10:01:47;10.50;;;2.25;;
74753;SDS011;63271;53.340;-6.260;2023-07-02T10:04:16;11.25;;;2.13;;
74753;SDS011;63271;53.340;-6.260;2023-07-02T10:06:55;14.45;;;2.58;;
74753;SDS011;63271;53.340;-6.260;2023-07-02T10:12:24;14.73;;;2.38;;
74753;SDS011;63271;53.340;-6.260;2023-07-02T10:14:51;7.25;;;2.10;;
74753;SDS011;63271;53.340;-6.260;2023-07-02T10:17:24;14.63;;;2.13;;
74753;SDS011;63271;53.340;-6.260;2023-07-02T10:19:54;15.73;;;2.60;;
74753;SDS011;63271;53.340;-6.260;2023-07-02T10:22:23;11.15;;;2.22;;
74753;SDS011;63271;53.340;-6.260;2023-07-02T10:24:59;12.55;;;2.70;;
74753;SDS011;63271;53.340;-6.260;2023-07-02T10:27:35;14.35;;;2.75;;
74753;SDS011;63271;53.340;-6.260;2023-07-02T10:30:07;14.25;;;2.50;;
74753;SDS011;63271;53.340;-6.260;2023-07-02T10:32:34;11.82;;;2.05;;
74753;SDS011;63271;53.340;-6.260;2023-07-02T10:35:16;8.68;;;1.60;;
74753;SDS011;63271;53.340;-6.260;2023-07-02T10:37:45;16.30;;;2.70;;
74753;SDS011;63271;53.340;-6.260;2023-07-02T10:40:15;14.35;;;2.55;;
74753;SDS011;63271;53.340;-6.260;2023-07-02T10:42:44;9.57;;;2.30;;
74753;SDS011;63271;53.340;-6.260;2023-07-02T10:45:13;11.30;;;2.40;;
74753;SDS011;63271;53.340;-6.260;2023-07-02T10:47:39;11.68;;;2.50;;
74753;SDS011;63271;53.340;-6.260;2023-07-02T10:50:19;13.85;;;2.25;;
74753;SDS011;63271;53.340;-6.260;2023-07-02T10:52:45;12.77;;;2.35;;
74753;SDS011;63271;53.340;-6.260;2023-07-02T10:55:21;12.65;;;2.35;;
74753;SDS011;63271;53.340;-6.260;2023-07-02T10:57:51;11.77;;;2.08;;
74753;SDS011;63271;53.340;-6.260;2023-07-02T11:00:30;8.10;;;2.20;;
74753;SDS011;63271;53.340;-6.260;2023-07-02T11:02:56;9.65;;;2.15;;
74753;SDS011;63271;53.340;-6.260;2023-07-02T11:05:22;9.48;;;2.53;;
74753;SDS011;63271;53.340;-6.260;2023-07-02T11:07:47;14.02;;;2.22;;
74753;SDS011;63271;53.340;-6.260;2023-07-02T11:10:19;9.40;;;1.90;;
74753;SDS011;63271;53.340;-6.260;2023-07-02T11:12:44;19.30;;;2.78;;
74753;SDS011;63271;53.340;-6.260;2023-07-02T11:15:10;14.00;;;2.13;;
74753;SDS011;63271;53.340;-6.260;2023-07-02T11:17:42;12.15;;;2.30;;
74753;SDS011;63271;53.340;-6.260;2023-07-02T11:20:07;10.05;;;2.67;;
74753;SDS011;63271;53.340;-6.260;2023-07-02T11:22:36;8.65;;;1.90;;
74753;SDS011;63271;53.340;-6.260;2023-07-02T11:25:12;11.52;;;2.10;;
74753;SDS011;63271;53.340;-6.260;2023-07-02T11:27:39;9.90;;;2.00;;
74753;SDS011;63271;53.340;-6.260;2023-07-02T11:30:07;11.68;;;2.50;;
74753;SDS011;63271;53.340;-6.260;2023-07-02T11:35:37;10.95;;;2.95;;
74753;SDS011;63271;53.340;-6.260;2023-07-02T11:38:02;10.98;;;2.58;;
74753;SDS011;63271;53.340;-6.260;2023-07-02T11:40:28;9.65;;;1.98;;
74753;SDS011;63271;53.340;-6.260;2023-07-02T11:42:58;9.38;;;2.38;;
74753;SDS011;63271;53.340;-6.260;2023-07-02T11:45:23;16.65;;;2.15;;
74753;SDS011;63271;53.340;-6.260;2023-07-02T11:47:49;12.02;;;2.10;;
74753;SDS011;63271;53.340;-6.260;2023-07-02T11:50:17;13.15;;;2.42;;
74753;SDS011;63271;53.340;-6.260;2023-07-02T11:52:45;14.75;;;2.72;;
74753;SDS011;63271;53.340;-6.260;2023-07-02T11:55:11;9.85;;;2.40;;
74753;SDS011;63271;53.340;-6.260;2023-07-02T11:57:36;9.50;;;2.03;;
74753;SDS011;63271;53.340;-6.260;2023-07-02T12:00:02;9.70;;;2.13;;
74753;SDS011;63271;53.340;-6.260;2023-07-02T12:02:30;10.60;;;2.38;;
74753;SDS011;63271;53.340;-6.260;2023-07-02T12:04:56;10.55;;;2.42;;
74753;SDS011;63271;53.340;-6.260;2023-07-02T12:07:23;8.68;;;1.70;;
74753;SDS011;63271;53.340;-6.260;2023-07-02T12:09:51;12.07;;;2.20;;
74753;SDS011;63271;53.340;-6.260;2023-07-02T12:12:19;10.25;;;1.60;;
74753;SDS011;63271;53.340;-6.260;2023-07-02T12:14:44;7.13;;;1.80;;
74753;SDS011;63271;53.340;-6.260;2023-07-02T12:17:12;6.88;;;1.90;;
74753;SDS011;63271;53.340;-6.260;2023-07-02T12:19:40;7.35;;;2.13;;
74753;SDS011;63271;53.340;-6.260;2023-07-02T12:22:06;11.02;;;2.25;;
74753;SDS011;63271;53.340;-6.260;2023-07-02T12:24:34;7.47;;;1.80;;
74753;SDS011;63271;53.340;-6.260;2023-07-02T12:26:59;9.45;;;3.10;;
74753;SDS011;63271;53.340;-6.260;2023-07-02T12:29:27;8.43;;;2.83;;
74753;SDS011;63271;53.340;-6.260;2023-07-02T12:31:55;14.30;;;1.95;;
74753;SDS011;63271;53.340;-6.260;2023-07-02T12:34:20;11.60;;;2.25;;
74753;SDS011;63271;53.340;-6.260;2023-07-02T12:36:45;8.90;;;2.45;;
74753;SDS011;63271;53.340;-6.260;2023-07-02T12:39:11;8.15;;;2.15;;
74753;SDS011;63271;53.340;-6.260;2023-07-02T12:41:36;10.07;;;2.10;;
74753;SDS011;63271;53.340;-6.260;2023-07-02T12:44:04;9.43;;;2.00;;
74753;SDS011;63271;53.340;-6.260;2023-07-02T12:46:29;7.38;;;2.17;;
74753;SDS011;63271;53.340;-6.260;2023-07-02T12:48:57;9.73;;;1.60;;
74753;SDS011;63271;53.340;-6.260;2023-07-02T12:51:27;12.20;;;1.63;;
74753;SDS011;63271;53.340;-6.260;2023-07-02T12:53:53;8.25;;;1.95;;
74753;SDS011;63271;53.340;-6.260;2023-07-02T12:56:18;7.68;;;1.85;;
74753;SDS011;63271;53.340;-6.260;2023-07-02T12:58:46;9.88;;;1.50;;
74753;SDS011;63271;53.340;-6.260;2023-07-02T13:01:12;11.82;;;1.63;;
74753;SDS011;63271;53.340;-6.260;2023-07-02T13:03:44;5.28;;;1.27;;
74753;SDS011;63271;53.340;-6.260;2023-07-02T13:06:14;8.35;;;1.48;;
74753;SDS011;63271;53.340;-6.260;2023-07-02T13:08:40;8.15;;;2.20;;
74753;SDS011;63271;53.340;-6.260;2023-07-02T13:11:05;6.20;;;1.85;;
74753;SDS011;63271;53.340;-6.260;2023-07-02T13:13:32;9.57;;;1.63;;
74753;SDS011;63271;53.340;-6.260;2023-07-02T13:16:01;7.63;;;1.75;;
74753;SDS011;63271;53.340;-6.260;2023-07-02T13:18:28;7.13;;;1.88;;
74753;SDS011;63271;53.340;-6.260;2023-07-02T13:20:54;8.48;;;1.65;;
74753;SDS011;63271;53.340;-6.260;2023-07-02T13:25:52;5.17;;;1.60;;
74753;SDS011;63271;53.340;-6.260;2023-07-02T13:28:20;7.38;;;1.75;;
74753;SDS011;63271;53.340;-6.260;2023-07-02T13:30:50;11.55;;;2.05;;
74753;SDS011;63271;53.340;-6.260;2023-07-02T13:33:17;7.47;;;1.90;;
74753;SDS011;63271;53.340;-6.260;2023-07-02T13:35:43;9.48;;;2.28;;
74753;SDS011;63271;53.340;-6.260;2023-07-02T13:38:11;7.57;;;2.05;;
74753;SDS011;63271;53.340;-6.260;2023-07-02T13:40:36;8.95;;;1.38;;
74753;SDS011;63271;53.340;-6.260;2023-07-02T13:43:04;5.55;;;1.70;;
74753;SDS011;63271;53.340;-6.260;2023-07-02T13:45:29;7.78;;;2.00;;
74753;SDS011;63271;53.340;-6.260;2023-07-02T13:47:57;9.07;;;2.08;;
74753;SDS011;63271;53.340;-6.260;2023-07-02T13:50:23;8.82;;;1.92;;
74753;SDS011;63271;53.340;-6.260;2023-07-02T13:52:48;7.40;;;1.73;;
74753;SDS011;63271;53.340;-6.260;2023-07-02T13:55:17;7.25;;;2.00;;
74753;SDS011;63271;53.340;-6.260;2023-07-02T13:57:42;8.48;;;1.92;;
74753;SDS011;63271;53.340;-6.260;2023-07-02T14:00:10;9.55;;;2.40;;
74753;SDS011;63271;53.340;-6.260;2023-07-02T14:02:36;10.15;;;2.25;;
74753;SDS011;63271;53.340;-6.260;2023-07-02T14:05:01;8.05;;;1.90;;
74753;SDS011;63271;53.340;-6.260;2023-07-02T14:07:27;10.10;;;2.22;;
74753;SDS011;63271;53.340;-6.260;2023-07-02T14:09:52;12.63;;;1.92;;
74753;SDS011;63271;53.340;-6.260;2023-07-02T14:12:20;9.65;;;2.20;;
74753;SDS011;63271;53.340;-6.260;2023-07-02T14:14:50;5.97;;;1.65;;
74753;SDS011;63271;53.340;-6.260;2023-07-02T14:17:16;9.18;;;2.20;;
74753;SDS011;63271;53.340;-6.260;2023-07-02T14:19:41;6.38;;;1.98;;
74753;SDS011;63271;53.340;-6.260;2023-07-02T14:22:07;12.63;;;2.30;;
74753;SDS011;63271;53.340;-6.260;2023-07-02T14:24:33;5.22;;;1.85;;
74753;SDS011;63271;53.340;-6.260;2023-07-02T14:27:01;10.02;;;3.13;;
74753;SDS011;63271;53.340;-6.260;2023-07-02T14:29:27;11.82;;;2.47;;
74753;SDS011;63271;53.340;-6.260;2023-07-02T14:31:53;14.38;;;2.33;;
74753;SDS011;63271;53.340;-6.260;2023-07-02T14:34:18;12.95;;;1.85;;
74753;SDS011;63271;53.340;-6.260;2023-07-02T14:36:46;5.90;;;2.00;;
74753;SDS011;63271;53.340;-6.260;2023-07-02T14:39:11;8.60;;;2.13;;
74753;SDS011;63271;53.340;-6.260;2023-07-02T14:41:41;9.45;;;2.05;;
74753;SDS011;63271;53.340;-6.260;2023-07-02T14:44:09;10.07;;;1.90;;
74753;SDS011;63271;53.340;-6.260;2023-07-02T14:46:35;9.63;;;2.10;;
74753;SDS011;63271;53.340;-6.260;2023-07-02T14:49:02;10.38;;;2.40;;
74753;SDS011;63271;53.340;-6.260;2023-07-02T14:51:28;6.57;;;1.80;;
74753;SDS011;63271;53.340;-6.260;2023-07-02T14:53:55;15.38;;;2.78;;
74753;SDS011;63271;53.340;-6.260;2023-07-02T14:56:21;14.25;;;2.95;;
74753;SDS011;63271;53.340;-6.260;2023-07-02T14:58:47;10.80;;;2.08;;
74753;SDS011;63271;53.340;-6.260;2023-07-02T15:01:13;5.75;;;2.03;;
74753;SDS011;63271;53.340;-6.260;2023-07-02T15:03:39;9.85;;;2.08;;
74753;SDS011;63271;53.340;-6.260;2023-07-02T15:06:11;8.50;;;2.05;;
74753;SDS011;63271;53.340;-6.260;2023-07-02T15:08:40;8.35;;;2.25;;
74753;SDS011;63271;53.340;-6.260;2023-07-02T15:11:08;11.93;;;2.38;;
74753;SDS011;63271;53.340;-6.260;2023-07-02T15:13:37;12.68;;;3.90;;
74753;SDS011;63271;53.340;-6.260;2023-07-02T15:16:06;7.68;;;2.60;;
74753;SDS011;63271;53.340;-6.260;2023-07-02T15:18:38;9.10;;;1.80;;
74753;SDS011;63271;53.340;-6.260;2023-07-02T15:21:06;10.15;;;2.10;;
74753;SDS011;63271;53.340;-6.260;2023-07-02T15:23:31;8.85;;;2.35;;
74753;SDS011;63271;53.340;-6.260;2023-07-02T15:26:03;18.33;;;2.58;;
74753;SDS011;63271;53.340;-6.260;2023-07-02T15:30:59;5.75;;;1.70;;
74753;SDS011;63271;53.340;-6.260;2023-07-02T15:33:28;5.63;;;1.38;;
74753;SDS011;63271;53.340;-6.260;2023-07-02T15:35:54;4.93;;;1.60;;
74753;SDS011;63271;53.340;-6.260;2023-07-02T15:38:20;6.97;;;1.90;;
74753;SDS011;63271;53.340;-6.260;2023-07-02T15:40:46;6.55;;;2.00;;
74753;SDS011;63271;53.340;-6.260;2023-07-02T15:43:15;10.85;;;1.80;;
74753;SDS011;63271;53.340;-6.260;2023-07-02T15:45:43;6.57;;;2.10;;
74753;SDS011;63271;53.340;-6.260;2023-07-02T15:48:08;7.80;;;2.38;;
74753;SDS011;63271;53.340;-6.260;2023-07-02T15:50:34;4.63;;;1.40;;
74753;SDS011;63271;53.340;-6.260;2023-07-02T15:52:59;7.07;;;1.70;;
74753;SDS011;63271;53.340;-6.260;2023-07-02T15:55:27;5.47;;;1.75;;
74753;SDS011;63271;53.340;-6.260;2023-07-02T15:57:53;7.50;;;2.60;;
74753;SDS011;63271;53.340;-6.260;2023-07-02T16:00:19;5.82;;;2.05;;
74753;SDS011;63271;53.340;-6.260;2023-07-02T16:02:45;8.60;;;2.47;;
74753;SDS011;63271;53.340;-6.260;2023-07-02T16:05:10;9.50;;;1.88;;
74753;SDS011;63271;53.340;-6.260;2023-07-02T16:07:36;6.90;;;2.20;;
74753;SDS011;63271;53.340;-6.260;2023-07-02T16:10:02;6.63;;;1.92;;
74753;SDS011;63271;53.340;-6.260;2023-07-02T16:12:29;7.10;;;1.83;;
74753;SDS011;63271;53.340;-6.260;2023-07-02T16:14:54;10.35;;;1.67;;
74753;SDS011;63271;53.340;-6.260;2023-07-02T16:17:22;8.20;;;1.80;;
74753;SDS011;63271;53.340;-6.260;2023-07-02T16:19:50;6.78;;;1.60;;
74753;SDS011;63271;53.340;-6.260;2023-07-02T16:22:15;8.10;;;2.10;;
74753;SDS011;63271;53.340;-6.260;2023-07-02T16:24:41;5.90;;;1.50;;
74753;SDS011;63271;53.340;-6.260;2023-07-02T16:27:09;13.85;;;2.30;;
74753;SDS011;63271;53.340;-6.260;2023-07-02T16:29:35;10.70;;;1.92;;
74753;SDS011;63271;53.340;-6.260;2023-07-02T16:32:01;9.30;;;1.92;;
74753;SDS011;63271;53.340;-6.260;2023-07-02T16:34:28;8.60;;;1.83;;
74753;SDS011;63271;53.340;-6.260;2023-07-02T16:36:57;5.43;;;1.58;;
74753;SDS011;63271;53.340;-6.260;2023-07-02T16:39:23;5.15;;;1.38;;
74753;SDS011;63271;53.340;-6.260;2023-07-02T16:41:51;7.78;;;1.60;;
74753;SDS011;63271;53.340;-6.260;2023-07-02T16:44:21;6.13;;;1.65;;
74753;SDS011;63271;53.340;-6.260;2023-07-02T16:46:51;7.95;;;2.00;;
74753;SDS011;63271;53.340;-6.260;2023-07-02T16:49:19;5.93;;;1.30;;
74753;SDS011;63271;53.340;-6.260;2023-07-02T16:51:49;9.00;;;1.95;;
74753;SDS011;63271;53.340;-6.260;2023-07-02T16:54:15;9.88;;;1.90;;
74753;SDS011;63271;53.340;-6.260;2023-07-02T16:56:47;6.38;;;1.77;;
74753;SDS011;63271;53.340;-6.260;2023-07-02T16:59:14;9.43;;;1.45;;
74753;SDS011;63271;53.340;-6.260;2023-07-02T17:01:50;4.88;;;1.35;;
74753;SDS011;63271;53.340;-6.260;2023-07-02T17:04:20;7.13;;;1.60;;
74753;SDS011;63271;53.340;-6.260;2023-07-02T17:06:50;7.72;;;1.52;;
74753;SDS011;63271;53.340;-6.260;2023-07-02T17:09:20;8.13;;;1.73;;
74753;SDS011;63271;53.340;-6.260;2023-07-02T17:12:20;6.85;;;1.42;;
74753;SDS011;63271;53.340;-6.260;2023-07-02T17:14:46;7.93;;;1.38;;
74753;SDS011;63271;53.340;-6.260;2023-07-02T17:17:20;9.85;;;2.33;;
74753;SDS011;63271;53.340;-6.260;2023-07-02T17:19:51;6.32;;;1.45;;
74753;SDS011;63271;53.340;-6.260;2023-07-02T17:22:20;6.03;;;1.58;;
74753;SDS011;63271;53.340;-6.260;2023-07-02T17:24:47;5.75;;;1.98;;
74753;SDS011;63271;53.340;-6.260;2023-07-02T17:27:16;3.05;;;1.10;;
74753;SDS011;63271;53.340;-6.260;2023-07-02T17:29:42;6.65;;;1.65;;
74753;SDS011;63271;53.340;-6.260;2023-07-02T17:32:15;7.95;;;1.70;;
74753;SDS011;63271;53.340;-6.260;2023-07-02T17:34:43;7.38;;;1.77;;
74753;SDS011;63271;53.340;-6.260;2023-07-02T17:37:09;5.97;;;1.23;;
74753;SDS011;63271;53.340;-6.260;2023-07-02T17:39:42;6.20;;;1.65;;
74753;SDS011;63271;53.340;-6.260;2023-07-02T17:42:08;4.47;;;1.20;;
74753;SDS011;63271;53.340;-6.260;2023-07-02T17:44:37;9.00;;;1.35;;
74753;SDS011;63271;53.340;-6.260;2023-07-02T17:47:05;4.00;;;1.20;;
74753;SDS011;63271;53.340;-6.260;2023-07-02T17:49:36;6.13;;;1.40;;
74753;SDS011;63271;53.340;-6.260;2023-07-02T17:52:03;8.52;;;1.60;;
74753;SDS011;63271;53.340;-6.260;2023-07-02T17:54:37;6.38;;;1.50;;
74753;SDS011;63271;53.340;-6.260;2023-07-02T17:57:15;6.22;;;1.42;;
74753;SDS011;63271;53.340;-6.260;2023-07-02T17:59:44;6.60;;;1.33;;
74753;SDS011;63271;53.340;-6.260;2023-07-02T18:02:11;4.78;;;1.60;;
74753;SDS011;63271;53.340;-6.260;2023-07-02T18:04:37;5.45;;;1.63;;
74753;SDS011;63271;53.340;-6.260;2023-07-02T18:07:05;7.72;;;1.35;;
74753;SDS011;63271;53.340;-6.260;2023-07-02T18:09:43;6.72;;;1.35;;
74753;SDS011;63271;53.340;-6.260;2023-07-02T18:12:11;7.38;;;1.77;;
74753;SDS011;63271;53.340;-6.260;2023-07-02T18:14:41;7.97;;;1.52;;
74753;SDS011;63271;53.340;-6.260;2023-07-02T18:17:07;4.65;;;1.20;;
74753;SDS011;63271;53.340;-6.260;2023-07-02T18:19:34;8.90;;;1.33;;
74753;SDS011;63271;53.340;-6.260;2023-07-02T18:22:02;10.07;;;1.30;;
74753;SDS011;63271;53.340;-6.260;2023-07-02T18:24:37;12.10;;;1.70;;
74753;SDS011;63271;53.340;-6.260;2023-07-02T18:27:04;8.07;;;1.60;;
74753;SDS011;63271;53.340;-6.260;2023-07-02T18:29:33;7.35;;;1.73;;
74753;SDS011;63271;53.340;-6.260;2023-07-02T18:32:03;6.03;;;1.52;;
74753;SDS011;63271;53.340;-6.260;2023-07-02T18:34:34;6.40;;;1.38;;
74753;SDS011;63271;53.340;-6.260;2023-07-02T18:37:01;8.13;;;1.40;;
74753;SDS011;63271;53.340;-6.260;2023-07-02T18:39:30;6.90;;;1.55;;
74753;SDS011;63271;53.340;-6.260;2023-07-02T18:42:05;6.43;;;1.40;;
74753;SDS011;63271;53.340;-6.260;2023-07-02T18:44:35;8.20;;;1.75;;
74753;SDS011;63271;53.340;-6.260;2023-07-02T18:47:04;7.22;;;1.15;;
74753;SDS011;63271;53.340;-6.260;2023-07-02T18:49:34;5.05;;;1.42;;
74753;SDS011;63271;53.340;-6.260;2023-07-02T18:54:41;8.38;;;2.28;;
74753;SDS011;63271;53.340;-6.260;2023-07-02T18:57:08;7.20;;;2.38;;
74753;SDS011;63271;53.340;-6.260;2023-07-02T18:59:38;8.27;;;2.03;;
